Time,TemperatureF,DewpointF,PressureIn,WindDirection,WindDirectionDegrees,WindSpeedMPH,WindSpeedGustMPH,Humidity,HourlyPrecipIn,Conditions,Clouds,dailyrainin,SoftwareType,DateUTC
2013-06-28 00:04:00,72.2,66.4,29.89,NNW,338,0.0,0.0,82,0.00,,,0.01,WUHU216HW,2013-06-28 05:04:00,
2013-06-28 00:29:00,71.3,66.2,29.89,NW,315,0.4,0.4,84,0.03,,,0.00,WUHU216HW,2013-06-28 05:29:00,
2013-06-28 00:35:00,71.3,66.2,29.89,NW,315,0.4,0.4,84,0.03,,,0.00,WUHU216HW,2013-06-28 05:35:00,
2013-06-28 00:59:00,70.9,66.5,29.91,South,180,0.2,0.2,86,0.04,,,0.03,WUHU216HW,2013-06-28 05:59:00,
2013-06-28 01:04:00,70.9,66.5,29.91,South,180,0.2,0.2,86,0.04,,,0.03,WUHU216HW,2013-06-28 06:04:00,
2013-06-28 01:29:00,70.6,66.5,29.88,NNW,338,0.4,0.4,87,0.00,,,0.04,WUHU216HW,2013-06-28 06:29:00,
2013-06-28 01:34:00,70.6,66.5,29.88,NNW,338,0.4,0.4,87,0.00,,,0.04,WUHU216HW,2013-06-28 06:34:00,
2013-06-28 01:59:00,70.2,66.2,29.89,NNW,338,0.0,0.0,87,0.00,,,0.04,WUHU216HW,2013-06-28 06:59:00,
2013-06-28 02:04:00,70.2,66.2,29.89,NNW,338,0.0,0.0,87,0.00,,,0.04,WUHU216HW,2013-06-28 07:04:00,
2013-06-28 02:29:00,69.8,65.8,29.88,NNW,338,0.0,0.0,87,0.00,,,0.04,WUHU216HW,2013-06-28 07:29:00,
2013-06-28 02:34:00,69.8,65.8,29.88,NNW,338,0.0,0.0,87,0.00,,,0.04,WUHU216HW,2013-06-28 07:34:00,
2013-06-28 02:59:00,69.3,65.3,29.87,NNW,338,0.0,0.0,87,0.00,,,0.04,WUHU216HW,2013-06-28 07:59:00,
2013-06-28 03:04:00,69.3,65.3,29.87,NNW,338,0.0,0.0,87,0.00,,,0.04,WUHU216HW,2013-06-28 08:04:00,
2013-06-28 03:29:00,68.8,65.1,29.88,NNW,338,0.0,0.0,88,0.00,,,0.04,WUHU216HW,2013-06-28 08:29:00,
2013-06-28 03:34:00,68.8,65.1,29.88,NNW,338,0.0,0.0,88,0.00,,,0.04,WUHU216HW,2013-06-28 08:34:00,
2013-06-28 03:59:00,68.4,65.0,29.88,NNW,338,0.0,0.0,89,0.00,,,0.04,WUHU216HW,2013-06-28 08:59:00,
2013-06-28 04:05:00,68.4,65.0,29.88,NNW,338,0.0,0.0,89,0.00,,,0.04,WUHU216HW,2013-06-28 09:05:00,
2013-06-28 04:30:00,68.0,65.0,29.88,NNW,338,0.0,0.0,90,0.00,,,0.04,WUHU216HW,2013-06-28 09:30:00,
2013-06-28 04:35:00,68.0,65.0,29.88,NNW,338,0.0,0.0,90,0.00,,,0.04,WUHU216HW,2013-06-28 09:35:00,
2013-06-28 04:59:00,67.9,65.1,29.89,NNW,338,0.0,0.0,91,0.00,,,0.04,WUHU216HW,2013-06-28 09:59:00,
2013-06-28 05:04:00,67.9,65.1,29.89,NNW,338,0.0,0.0,91,0.00,,,0.04,WUHU216HW,2013-06-28 10:04:00,
2013-06-28 05:29:00,67.9,65.1,29.89,NNW,338,0.0,0.0,91,0.00,,,0.04,WUHU216HW,2013-06-28 10:29:00,
2013-06-28 05:34:00,67.9,65.1,29.89,NNW,338,0.0,0.0,91,0.00,,,0.04,WUHU216HW,2013-06-28 10:34:00,
2013-06-28 05:59:00,67.7,64.9,29.90,NNW,338,0.0,0.0,91,0.00,,,0.04,WUHU216HW,2013-06-28 10:59:00,
2013-06-28 06:04:00,67.7,64.9,29.90,NNW,338,0.0,0.0,91,0.00,,,0.04,WUHU216HW,2013-06-28 11:04:00,
2013-06-28 06:29:00,67.5,64.7,29.90,NNW,338,0.0,0.0,91,0.00,,,0.04,WUHU216HW,2013-06-28 11:29:00,
2013-06-28 06:34:00,67.5,64.7,29.90,NNW,338,0.0,0.0,91,0.00,,,0.04,WUHU216HW,2013-06-28 11:34:00,
2013-06-28 06:59:00,67.5,64.7,29.90,NNW,338,0.0,0.0,91,0.00,,,0.04,WUHU216HW,2013-06-28 11:59:00,
2013-06-28 07:04:00,67.5,64.7,29.90,NNW,338,0.0,0.0,91,0.00,,,0.04,WUHU216HW,2013-06-28 12:04:00,
2013-06-28 07:29:00,68.0,65.6,29.91,NNW,338,0.0,0.0,92,0.00,,,0.04,WUHU216HW,2013-06-28 12:29:00,
2013-06-28 07:34:00,68.0,65.6,29.91,NNW,338,0.0,0.0,92,0.00,,,0.04,WUHU216HW,2013-06-28 12:34:00,
2013-06-28 07:59:00,68.6,66.2,29.91,NNW,338,0.2,0.2,92,0.00,,,0.04,WUHU216HW,2013-06-28 12:59:00,
2013-06-28 08:04:00,68.6,66.2,29.91,NNW,338,0.2,0.2,92,0.00,,,0.04,WUHU216HW,2013-06-28 13:04:00,
2013-06-28 08:29:00,70.2,67.4,29.91,West,270,0.0,0.0,91,0.00,,,0.04,WUHU216HW,2013-06-28 13:29:00,
2013-06-28 08:34:00,70.2,67.4,29.91,West,270,0.0,0.0,91,0.00,,,0.04,WUHU216HW,2013-06-28 13:34:00,
2013-06-28 08:59:00,72.4,68.6,29.91,West,270,0.2,0.2,88,0.00,,,0.04,WUHU216HW,2013-06-28 13:59:00,
2013-06-28 09:04:00,72.4,68.6,29.91,West,270,0.2,0.2,88,0.00,,,0.04,WUHU216HW,2013-06-28 14:04:00,
2013-06-28 09:29:00,74.3,69.2,29.91,WSW,248,0.4,0.4,84,0.00,,,0.04,WUHU216HW,2013-06-28 14:29:00,
2013-06-28 09:34:00,74.3,69.2,29.91,WSW,248,0.4,0.4,84,0.00,,,0.04,WUHU216HW,2013-06-28 14:34:00,
2013-06-28 09:59:00,76.1,69.2,29.91,WSW,248,0.2,0.2,79,0.00,,,0.04,WUHU216HW,2013-06-28 14:59:00,
2013-06-28 10:04:00,76.1,69.2,29.91,WSW,248,0.2,0.2,79,0.00,,,0.04,WUHU216HW,2013-06-28 15:04:00,
2013-06-28 10:29:00,78.1,70.7,29.90,WNW,293,0.4,0.4,78,0.00,,,0.04,WUHU216HW,2013-06-28 15:29:00,
2013-06-28 10:34:00,78.1,70.7,29.90,WNW,293,0.4,0.4,78,0.00,,,0.04,WUHU216HW,2013-06-28 15:34:00,
2013-06-28 10:59:00,79.6,69.8,29.91,WSW,248,1.8,1.8,72,0.00,,,0.04,WUHU216HW,2013-06-28 15:59:00,
2013-06-28 11:04:00,79.6,69.8,29.91,WSW,248,1.8,1.8,72,0.00,,,0.04,WUHU216HW,2013-06-28 16:04:00,
2013-06-28 11:29:00,79.9,68.0,29.91,SW,225,1.1,1.1,67,0.00,,,0.04,WUHU216HW,2013-06-28 16:29:00,
2013-06-28 11:34:00,79.9,68.0,29.91,SW,225,1.1,1.1,67,0.00,,,0.04,WUHU216HW,2013-06-28 16:34:00,
2013-06-28 11:59:00,80.5,68.0,29.91,West,270,1.1,1.1,66,0.00,,,0.04,WUHU216HW,2013-06-28 16:59:00,
2013-06-28 12:04:00,80.5,68.0,29.91,West,270,1.1,1.1,66,0.00,,,0.04,WUHU216HW,2013-06-28 17:04:00,
2013-06-28 12:29:00,82.4,66.6,29.91,West,270,1.3,1.3,59,0.00,,,0.04,WUHU216HW,2013-06-28 17:29:00,
2013-06-28 12:34:00,82.4,66.6,29.91,West,270,1.3,1.3,59,0.00,,,0.04,WUHU216HW,2013-06-28 17:34:00,
2013-06-28 12:59:00,84.4,67.5,29.90,WSW,248,0.9,0.9,57,0.00,,,0.04,WUHU216HW,2013-06-28 17:59:00,
2013-06-28 13:04:00,84.4,67.5,29.90,WSW,248,0.9,0.9,57,0.00,,,0.04,WUHU216HW,2013-06-28 18:04:00,
2013-06-28 13:29:00,86.2,66.1,29.89,WNW,293,2.0,2.0,51,0.00,,,0.04,WUHU216HW,2013-06-28 18:29:00,
2013-06-28 13:34:00,86.2,66.1,29.89,WNW,293,2.0,2.0,51,0.00,,,0.04,WUHU216HW,2013-06-28 18:34:00,
2013-06-28 13:59:00,87.8,61.3,29.89,WSW,248,2.5,2.5,41,0.00,,,0.04,WUHU216HW,2013-06-28 18:59:00,
2013-06-28 14:04:00,87.8,61.3,29.89,WSW,248,2.5,2.5,41,0.00,,,0.04,WUHU216HW,2013-06-28 19:04:00,
2013-06-28 14:30:00,88.6,63.8,29.88,NNW,338,3.4,3.4,44,0.00,,,0.04,WUHU216HW,2013-06-28 19:30:00,
2013-06-28 14:34:00,88.6,63.8,29.88,NNW,338,3.4,3.4,44,0.00,,,0.04,WUHU216HW,2013-06-28 19:34:00,
2013-06-28 14:59:00,89.5,63.3,29.88,NW,315,0.7,0.7,42,0.00,,,0.04,WUHU216HW,2013-06-28 19:59:00,
2013-06-28 15:04:00,89.5,63.3,29.88,NW,315,0.7,0.7,42,0.00,,,0.04,WUHU216HW,2013-06-28 20:04:00,
2013-06-28 15:29:00,89.8,62.9,29.87,West,270,1.8,1.8,41,0.00,,,0.04,WUHU216HW,2013-06-28 20:29:00,
2013-06-28 15:34:00,89.8,62.9,29.87,West,270,1.8,1.8,41,0.00,,,0.04,WUHU216HW,2013-06-28 20:34:00,
2013-06-28 15:39:00,89.8,62.9,29.87,West,270,1.8,1.8,41,0.00,,,0.04,WUHU216HW,2013-06-28 20:39:00,
2013-06-28 15:59:00,89.3,63.1,29.87,West,270,2.0,2.0,42,0.00,,,0.04,WUHU216HW,2013-06-28 20:59:00,
2013-06-28 16:04:00,89.3,63.1,29.87,West,270,2.0,2.0,42,0.00,,,0.04,WUHU216HW,2013-06-28 21:04:00,
2013-06-28 16:29:00,87.5,59.5,29.86,West,270,3.8,3.8,39,0.00,,,0.04,WUHU216HW,2013-06-28 21:29:00,
2013-06-28 16:34:00,87.5,59.5,29.86,West,270,3.8,3.8,39,0.00,,,0.04,WUHU216HW,2013-06-28 21:34:00,
2013-06-28 16:59:00,86.0,59.7,29.86,SSW,203,1.8,1.8,41,0.00,,,0.04,WUHU216HW,2013-06-28 21:59:00,
2013-06-28 17:04:00,86.0,59.7,29.86,SSW,203,1.8,1.8,41,0.00,,,0.04,WUHU216HW,2013-06-28 22:04:00,
2013-06-28 17:29:00,85.1,57.4,29.86,North,0,3.4,3.4,39,0.00,,,0.04,WUHU216HW,2013-06-28 22:29:00,
2013-06-28 17:34:00,85.1,57.4,29.86,North,0,3.4,3.4,39,0.00,,,0.04,WUHU216HW,2013-06-28 22:34:00,
2013-06-28 17:59:00,84.6,59.1,29.85,SW,225,1.3,1.3,42,0.00,,,0.04,WUHU216HW,2013-06-28 22:59:00,
2013-06-28 18:04:00,84.6,59.1,29.85,SW,225,1.3,1.3,42,0.00,,,0.04,WUHU216HW,2013-06-28 23:04:00,
2013-06-28 18:30:00,83.5,56.8,29.85,WSW,248,1.8,1.8,40,0.00,,,0.04,WUHU216HW,2013-06-28 23:30:00,
2013-06-28 18:35:00,83.5,56.8,29.85,WSW,248,1.8,1.8,40,0.00,,,0.04,WUHU216HW,2013-06-28 23:35:00,
2013-06-28 18:59:00,83.2,57.1,29.84,West,270,1.6,1.6,41,0.00,,,0.04,WUHU216HW,2013-06-28 23:59:00,
2013-06-28 19:05:00,83.2,57.1,29.84,West,270,1.6,1.6,41,0.00,,,0.04,WUHU216HW,2013-06-29 00:05:00,
2013-06-28 19:29:00,82.4,58.2,29.84,WNW,293,0.4,0.4,44,0.00,,,0.04,WUHU216HW,2013-06-29 00:29:00,
2013-06-28 19:34:00,82.4,58.2,29.84,WNW,293,0.4,0.4,44,0.00,,,0.04,WUHU216HW,2013-06-29 00:34:00,
2013-06-28 19:59:00,81.5,58.1,29.84,WSW,248,0.9,0.9,45,0.00,,,0.04,WUHU216HW,2013-06-29 00:59:00,
2013-06-28 20:04:00,81.5,58.1,29.84,WSW,248,0.9,0.9,45,0.00,,,0.04,WUHU216HW,2013-06-29 01:04:00,
2013-06-28 20:29:00,79.9,57.8,29.84,WNW,293,0.4,0.4,47,0.00,,,0.04,WUHU216HW,2013-06-29 01:29:00,
2013-06-28 20:34:00,79.9,57.8,29.84,WNW,293,0.4,0.4,47,0.00,,,0.04,WUHU216HW,2013-06-29 01:34:00,
2013-06-28 20:59:00,78.3,57.6,29.84,West,270,0.0,0.0,49,0.00,,,0.04,WUHU216HW,2013-06-29 01:59:00,
2013-06-28 21:04:00,78.3,57.6,29.84,West,270,0.0,0.0,49,0.00,,,0.04,WUHU216HW,2013-06-29 02:04:00,
2013-06-28 21:29:00,76.9,57.4,29.84,West,270,0.0,0.0,51,0.00,,,0.04,WUHU216HW,2013-06-29 02:29:00,
2013-06-28 21:34:00,76.9,57.4,29.84,West,270,0.0,0.0,51,0.00,,,0.04,WUHU216HW,2013-06-29 02:34:00,
2013-06-28 21:59:00,75.4,57.2,29.84,West,270,0.2,0.2,53,0.00,,,0.04,WUHU216HW,2013-06-29 02:59:00,
2013-06-28 22:04:00,75.4,57.2,29.84,West,270,0.2,0.2,53,0.00,,,0.04,WUHU216HW,2013-06-29 03:04:00,
2013-06-28 22:29:00,74.3,57.1,29.84,West,270,0.0,0.0,55,0.00,,,0.04,WUHU216HW,2013-06-29 03:29:00,
2013-06-28 22:34:00,74.3,57.1,29.84,West,270,0.0,0.0,55,0.00,,,0.04,WUHU216HW,2013-06-29 03:34:00,
2013-06-28 22:59:00,73.3,57.0,29.84,West,270,0.0,0.0,57,0.00,,,0.04,WUHU216HW,2013-06-29 03:59:00,
2013-06-28 23:01:00,73.3,57.0,29.84,West,270,0.0,0.0,57,0.00,,,0.04,WUHU216HW,2013-06-29 04:01:00,
2013-06-28 23:06:00,73.3,57.0,29.84,West,270,0.0,0.0,57,0.00,,,0.04,WUHU216HW,2013-06-29 04:06:00,
2013-06-28 23:29:00,72.4,57.3,29.84,West,270,0.0,0.0,59,0.00,,,0.04,WUHU216HW,2013-06-29 04:29:00,
2013-06-28 23:34:00,72.4,57.3,29.84,West,270,0.0,0.0,59,0.00,,,0.04,WUHU216HW,2013-06-29 04:34:00,
2013-06-28 23:59:00,71.6,57.5,29.84,West,270,0.0,0.0,61,0.00,,,0.00,WUHU216HW,2013-06-29 04:59:00,